sensor_id;sensor_type;location;lat;lon;timestamp;P1;durP1;ratioP1;P2;durP2;ratioP2
4430;SDS011;2228;48.140;11.488;2024-01-30T00:00:54;14.57;;;7.47;;
4430;SDS011;2228;48.140;11.488;2024-01-30T00:03:21;15.30;;;7.45;;
4430;SDS011;2228;48.140;11.488;2024-01-30T00:05:48;15.32;;;7.80;;
4430;SDS011;2228;48.140;11.488;2024-01-30T00:08:15;14.50;;;7.53;;
4430;SDS011;2228;48.140;11.488;2024-01-30T00:10:44;15.70;;;8.07;;
4430;SDS011;2228;48.140;11.488;2024-01-30T00:13:12;15.43;;;7.60;;
4430;SDS011;2228;48.140;11.488;2024-01-30T00:15:42;15.48;;;8.23;;
4430;SDS011;2228;48.140;11.488;2024-01-30T00:18:09;15.10;;;7.43;;
4430;SDS011;2228;48.140;11.488;2024-01-30T00:20:36;17.48;;;8.40;;
4430;SDS011;2228;48.140;11.488;2024-01-30T00:23:03;17.02;;;8.77;;
4430;SDS011;2228;48.140;11.488;2024-01-30T00:25:31;14.63;;;7.70;;
4430;SDS011;2228;48.140;11.488;2024-01-30T00:28:00;17.23;;;9.43;;
4430;SDS011;2228;48.140;11.488;2024-01-30T00:30:27;15.57;;;8.50;;
4430;SDS011;2228;48.140;11.488;2024-01-30T00:32:54;17.42;;;8.80;;
4430;SDS011;2228;48.140;11.488;2024-01-30T00:35:21;21.25;;;9.70;;
4430;SDS011;2228;48.140;11.488;2024-01-30T00:37:49;17.57;;;9.40;;
4430;SDS011;2228;48.140;11.488;2024-01-30T00:40:16;15.77;;;8.90;;
4430;SDS011;2228;48.140;11.488;2024-01-30T00:42:43;17.40;;;8.73;;
4430;SDS011;2228;48.140;11.488;2024-01-30T00:45:15;24.17;;;11.73;;
4430;SDS011;2228;48.140;11.488;2024-01-30T00:47:43;20.15;;;10.00;;
4430;SDS011;2228;48.140;11.488;2024-01-30T00:50:10;22.03;;;9.60;;
4430;SDS011;2228;48.140;11.488;2024-01-30T00:52:37;20.00;;;8.57;;
4430;SDS011;2228;48.140;11.488;2024-01-30T00:55:06;16.83;;;9.10;;
4430;SDS011;2228;48.140;11.488;2024-01-30T00:57:33;18.27;;;9.00;;
4430;SDS011;2228;48.140;11.488;2024-01-30T01:00:01;22.05;;;10.00;;
4430;SDS011;2228;48.140;11.488;2024-01-30T01:02:32;21.85;;;10.80;;
4430;SDS011;2228;48.140;11.488;2024-01-30T01:05:00;18.75;;;9.25;;
4430;SDS011;2228;48.140;11.488;2024-01-30T01:07:27;22.40;;;10.30;;
4430;SDS011;2228;48.140;11.488;2024-01-30T01:09:54;16.95;;;8.20;;
4430;SDS011;2228;48.140;11.488;2024-01-30T01:12:22;18.23;;;8.50;;
4430;SDS011;2228;48.140;11.488;2024-01-30T01:14:51;16.38;;;8.80;;
4430;SDS011;2228;48.140;11.488;2024-01-30T01:17:18;16.23;;;8.10;;
4430;SDS011;2228;48.140;11.488;2024-01-30T01:19:47;15.60;;;7.83;;
4430;SDS011;2228;48.140;11.488;2024-01-30T01:22:15;15.38;;;7.47;;
4430;SDS011;2228;48.140;11.488;2024-01-30T01:24:43;11.00;;;6.85;;
4430;SDS011;2228;48.140;11.488;2024-01-30T01:27:11;16.40;;;7.10;;
4430;SDS011;2228;48.140;11.488;2024-01-30T01:29:38;13.18;;;8.00;;
4430;SDS011;2228;48.140;11.488;2024-01-30T01:32:06;16.70;;;7.32;;
4430;SDS011;2228;48.140;11.488;2024-01-30T01:34:33;14.55;;;6.85;;
4430;SDS011;2228;48.140;11.488;2024-01-30T01:37:02;14.50;;;7.27;;
4430;SDS011;2228;48.140;11.488;2024-01-30T01:39:29;14.52;;;7.00;;
4430;SDS011;2228;48.140;11.488;2024-01-30T01:41:57;13.45;;;6.88;;
4430;SDS011;2228;48.140;11.488;2024-01-30T01:44:24;17.00;;;6.83;;
4430;SDS011;2228;48.140;11.488;2024-01-30T01:46:51;17.40;;;7.43;;
4430;SDS011;2228;48.140;11.488;2024-01-30T01:49:19;13.75;;;7.35;;
4430;SDS011;2228;48.140;11.488;2024-01-30T01:51:46;14.30;;;7.38;;
4430;SDS011;2228;48.140;11.488;2024-01-30T01:54:15;16.02;;;6.75;;
4430;SDS011;2228;48.140;11.488;2024-01-30T01:56:43;15.10;;;6.70;;
4430;SDS011;2228;48.140;11.488;2024-01-30T01:59:11;16.45;;;7.65;;
4430;SDS011;2228;48.140;11.488;2024-01-30T02:01:38;17.00;;;8.20;;
4430;SDS011;2228;48.140;11.488;2024-01-30T02:04:06;12.43;;;7.00;;
4430;SDS011;2228;48.140;11.488;2024-01-30T02:06:33;13.65;;;6.53;;
4430;SDS011;2228;48.140;11.488;2024-01-30T02:09:01;13.57;;;6.10;;
4430;SDS011;2228;48.140;11.488;2024-01-30T02:11:31;10.53;;;5.50;;
4430;SDS011;2228;48.140;11.488;2024-01-30T02:14:02;8.82;;;5.05;;
4430;SDS011;2228;48.140;11.488;2024-01-30T02:16:29;10.93;;;6.73;;
4430;SDS011;2228;48.140;11.488;2024-01-30T02:18:56;13.07;;;6.50;;
4430;SDS011;2228;48.140;11.488;2024-01-30T02:21:25;11.30;;;5.93;;
4430;SDS011;2228;48.140;11.488;2024-01-30T02:23:53;16.45;;;7.25;;
4430;SDS011;2228;48.140;11.488;2024-01-30T02:26:21;13.27;;;6.90;;
4430;SDS011;2228;48.140;11.488;2024-01-30T02:28:49;14.65;;;6.10;;
4430;SDS011;2228;48.140;11.488;2024-01-30T02:31:16;12.95;;;5.88;;
4430;SDS011;2228;48.140;11.488;2024-01-30T02:33:43;14.38;;;6.72;;
4430;SDS011;2228;48.140;11.488;2024-01-30T02:36:10;11.90;;;6.38;;
4430;SDS011;2228;48.140;11.488;2024-01-30T02:38:40;13.77;;;6.70;;
4430;SDS011;2228;48.140;11.488;2024-01-30T02:41:07;10.57;;;6.25;;
4430;SDS011;2228;48.140;11.488;2024-01-30T02:43:34;14.00;;;6.75;;
4430;SDS011;2228;48.140;11.488;2024-01-30T02:46:01;14.15;;;6.18;;
4430;SDS011;2228;48.140;11.488;2024-01-30T02:48:29;11.43;;;6.20;;
4430;SDS011;2228;48.140;11.488;2024-01-30T02:50:56;12.45;;;6.40;;
4430;SDS011;2228;48.140;11.488;2024-01-30T02:53:24;11.95;;;6.30;;
4430;SDS011;2228;48.140;11.488;2024-01-30T02:55:52;12.00;;;5.80;;
4430;SDS011;2228;48.140;11.488;2024-01-30T02:58:20;10.27;;;5.40;;
4430;SDS011;2228;48.140;11.488;2024-01-30T03:00:47;13.82;;;6.60;;
4430;SDS011;2228;48.140;11.488;2024-01-30T03:03:14;11.05;;;6.80;;
4430;SDS011;2228;48.140;11.488;2024-01-30T03:05:41;10.17;;;6.07;;
4430;SDS011;2228;48.140;11.488;2024-01-30T03:08:08;13.95;;;6.10;;
4430;SDS011;2228;48.140;11.488;2024-01-30T03:10:36;12.35;;;6.38;;
4430;SDS011;2228;48.140;11.488;2024-01-30T03:13:05;11.43;;;6.28;;
4430;SDS011;2228;48.140;11.488;2024-01-30T03:15:32;11.15;;;5.70;;
4430;SDS011;2228;48.140;11.488;2024-01-30T03:17:59;11.20;;;5.63;;
4430;SDS011;2228;48.140;11.488;2024-01-30T03:20:26;13.23;;;5.70;;
4430;SDS011;2228;48.140;11.488;2024-01-30T03:22:54;11.18;;;5.80;;
4430;SDS011;2228;48.140;11.488;2024-01-30T03:25:22;13.77;;;6.43;;
4430;SDS011;2228;48.140;11.488;2024-01-30T03:27:50;14.77;;;6.45;;
4430;SDS011;2228;48.140;11.488;2024-01-30T03:30:18;13.63;;;6.03;;
4430;SDS011;2228;48.140;11.488;2024-01-30T03:32:46;15.77;;;6.50;;
4430;SDS011;2228;48.140;11.488;2024-01-30T03:35:13;12.48;;;6.05;;
4430;SDS011;2228;48.140;11.488;2024-01-30T03:37:40;12.40;;;5.83;;
4430;SDS011;2228;48.140;11.488;2024-01-30T03:40:08;10.00;;;5.50;;
4430;SDS011;2228;48.140;11.488;2024-01-30T03:42:35;12.02;;;5.88;;
4430;SDS011;2228;48.140;11.488;2024-01-30T03:45:03;11.45;;;5.65;;
4430;SDS011;2228;48.140;11.488;2024-01-30T03:47:32;14.95;;;5.90;;
4430;SDS011;2228;48.140;11.488;2024-01-30T03:49:59;10.27;;;6.10;;
4430;SDS011;2228;48.140;11.488;2024-01-30T03:52:26;11.70;;;5.73;;
4430;SDS011;2228;48.140;11.488;2024-01-30T03:54:54;15.35;;;6.05;;
4430;SDS011;2228;48.140;11.488;2024-01-30T03:57:21;12.80;;;6.15;;
4430;SDS011;2228;48.140;11.488;2024-01-30T03:59:49;12.38;;;6.43;;
4430;SDS011;2228;48.140;11.488;2024-01-30T04:02:16;10.98;;;6.28;;
4430;SDS011;2228;48.140;11.488;2024-01-30T04:04:45;9.33;;;5.50;;
4430;SDS011;2228;48.140;11.488;2024-01-30T04:07:13;10.05;;;5.10;;
4430;SDS011;2228;48.140;11.488;2024-01-30T04:09:40;11.52;;;4.68;;
4430;SDS011;2228;48.140;11.488;2024-01-30T04:12:07;11.23;;;4.72;;
4430;SDS011;2228;48.140;11.488;2024-01-30T04:14:40;12.30;;;4.40;;
4430;SDS011;2228;48.140;11.488;2024-01-30T04:17:08;7.38;;;4.30;;
4430;SDS011;2228;48.140;11.488;2024-01-30T04:19:37;10.80;;;5.20;;
4430;SDS011;2228;48.140;11.488;2024-01-30T04:22:06;8.40;;;4.80;;
4430;SDS011;2228;48.140;11.488;2024-01-30T04:24:33;8.25;;;4.95;;
4430;SDS011;2228;48.140;11.488;2024-01-30T04:27:00;9.80;;;4.85;;
4430;SDS011;2228;48.140;11.488;2024-01-30T04:29:27;11.30;;;5.50;;
4430;SDS011;2228;48.140;11.488;2024-01-30T04:31:55;8.02;;;4.55;;
4430;SDS011;2228;48.140;11.488;2024-01-30T04:34:22;10.88;;;4.90;;
4430;SDS011;2228;48.140;11.488;2024-01-30T04:36:50;7.00;;;4.35;;
4430;SDS011;2228;48.140;11.488;2024-01-30T04:39:19;8.55;;;4.80;;
4430;SDS011;2228;48.140;11.488;2024-01-30T04:41:47;8.95;;;4.22;;
4430;SDS011;2228;48.140;11.488;2024-01-30T04:44:14;10.27;;;4.40;;
4430;SDS011;2228;48.140;11.488;2024-01-30T04:46:42;10.95;;;5.07;;
4430;SDS011;2228;48.140;11.488;2024-01-30T04:49:09;13.18;;;5.18;;
4430;SDS011;2228;48.140;11.488;2024-01-30T04:51:37;9.32;;;4.95;;
4430;SDS011;2228;48.140;11.488;2024-01-30T04:54:04;13.88;;;4.68;;
4430;SDS011;2228;48.140;11.488;2024-01-30T04:56:34;9.98;;;4.90;;
4430;SDS011;2228;48.140;11.488;2024-01-30T04:59:02;12.70;;;4.70;;
4430;SDS011;2228;48.140;11.488;2024-01-30T05:01:30;12.60;;;4.70;;
4430;SDS011;2228;48.140;11.488;2024-01-30T05:04:13;12.10;;;5.40;;
4430;SDS011;2228;48.140;11.488;2024-01-30T05:06:40;8.55;;;4.35;;
4430;SDS011;2228;48.140;11.488;2024-01-30T05:09:08;7.80;;;4.35;;
4430;SDS011;2228;48.140;11.488;2024-01-30T05:11:38;10.18;;;4.78;;
4430;SDS011;2228;48.140;11.488;2024-01-30T05:14:07;13.98;;;4.90;;
4430;SDS011;2228;48.140;11.488;2024-01-30T05:16:36;9.60;;;4.45;;
4430;SDS011;2228;48.140;11.488;2024-01-30T05:19:05;13.30;;;5.45;;
4430;SDS011;2228;48.140;11.488;2024-01-30T05:21:33;11.15;;;5.53;;
4430;SDS011;2228;48.140;11.488;2024-01-30T05:24:02;15.63;;;5.60;;
4430;SDS011;2228;48.140;11.488;2024-01-30T05:26:29;12.32;;;5.63;;
4430;SDS011;2228;48.140;11.488;2024-01-30T05:28:58;17.10;;;6.63;;
4430;SDS011;2228;48.140;11.488;2024-01-30T05:31:26;16.40;;;7.20;;
4430;SDS011;2228;48.140;11.488;2024-01-30T05:33:54;17.92;;;7.80;;
4430;SDS011;2228;48.140;11.488;2024-01-30T05:36:21;16.75;;;7.10;;
4430;SDS011;2228;48.140;11.488;2024-01-30T05:38:48;16.30;;;6.60;;
4430;SDS011;2228;48.140;11.488;2024-01-30T05:41:16;22.60;;;8.48;;
4430;SDS011;2228;48.140;11.488;2024-01-30T05:43:44;24.27;;;9.50;;
4430;SDS011;2228;48.140;11.488;2024-01-30T05:46:12;28.87;;;10.00;;
4430;SDS011;2228;48.140;11.488;2024-01-30T05:48:40;22.52;;;8.27;;
4430;SDS011;2228;48.140;11.488;2024-01-30T05:51:07;20.27;;;7.88;;
4430;SDS011;2228;48.140;11.488;2024-01-30T05:53:35;21.15;;;9.48;;
4430;SDS011;2228;48.140;11.488;2024-01-30T05:56:02;16.10;;;7.40;;
4430;SDS011;2228;48.140;11.488;2024-01-30T05:58:30;27.92;;;9.40;;
4430;SDS011;2228;48.140;11.488;2024-01-30T06:00:57;20.52;;;7.75;;
4430;SDS011;2228;48.140;11.488;2024-01-30T06:03:26;21.15;;;6.80;;
4430;SDS011;2228;48.140;11.488;2024-01-30T06:05:53;24.23;;;9.38;;
4430;SDS011;2228;48.140;11.488;2024-01-30T06:08:21;25.63;;;11.05;;
4430;SDS011;2228;48.140;11.488;2024-01-30T06:10:48;30.38;;;9.20;;
4430;SDS011;2228;48.140;11.488;2024-01-30T06:13:15;38.90;;;9.30;;
4430;SDS011;2228;48.140;11.488;2024-01-30T06:15:43;27.00;;;9.32;;
4430;SDS011;2228;48.140;11.488;2024-01-30T06:18:10;29.30;;;9.70;;
4430;SDS011;2228;48.140;11.488;2024-01-30T06:20:41;26.90;;;9.73;;
4430;SDS011;2228;48.140;11.488;2024-01-30T06:23:09;20.47;;;7.13;;
4430;SDS011;2228;48.140;11.488;2024-01-30T06:25:38;14.93;;;7.70;;
4430;SDS011;2228;48.140;11.488;2024-01-30T06:28:05;20.52;;;6.70;;
4430;SDS011;2228;48.140;11.488;2024-01-30T06:30:32;15.43;;;6.38;;
4430;SDS011;2228;48.140;11.488;2024-01-30T06:33:00;13.70;;;6.40;;
4430;SDS011;2228;48.140;11.488;2024-01-30T06:35:28;25.13;;;8.20;;
4430;SDS011;2228;48.140;11.488;2024-01-30T06:37:57;22.45;;;7.28;;
4430;SDS011;2228;48.140;11.488;2024-01-30T06:40:24;13.98;;;6.78;;
4430;SDS011;2228;48.140;11.488;2024-01-30T06:42:51;15.32;;;6.30;;
4430;SDS011;2228;48.140;11.488;2024-01-30T06:45:19;13.05;;;6.90;;
4430;SDS011;2228;48.140;11.488;2024-01-30T06:47:46;16.98;;;8.23;;
4430;SDS011;2228;48.140;11.488;2024-01-30T06:50:14;20.38;;;7.45;;
4430;SDS011;2228;48.140;11.488;2024-01-30T06:52:41;12.05;;;7.00;;
4430;SDS011;2228;48.140;11.488;2024-01-30T06:55:10;14.38;;;6.63;;
4430;SDS011;2228;48.140;11.488;2024-01-30T06:57:37;17.40;;;5.80;;
4430;SDS011;2228;48.140;11.488;2024-01-30T07:00:05;12.40;;;5.65;;
4430;SDS011;2228;48.140;11.488;2024-01-30T07:02:35;15.90;;;7.05;;
4430;SDS011;2228;48.140;11.488;2024-01-30T07:05:02;16.73;;;6.60;;
4430;SDS011;2228;48.140;11.488;2024-01-30T07:07:30;12.30;;;5.57;;
4430;SDS011;2228;48.140;11.488;2024-01-30T07:09:57;12.90;;;5.77;;
4430;SDS011;2228;48.140;11.488;2024-01-30T07:12:25;15.85;;;6.70;;
4430;SDS011;2228;48.140;11.488;2024-01-30T07:14:53;13.48;;;6.13;;
4430;SDS011;2228;48.140;11.488;2024-01-30T07:17:21;11.60;;;6.22;;
4430;SDS011;2228;48.140;11.488;2024-01-30T07:19:48;13.82;;;6.10;;
4430;SDS011;2228;48.140;11.488;2024-01-30T07:22:16;18.52;;;6.55;;
4430;SDS011;2228;48.140;11.488;2024-01-30T07:24:43;11.93;;;6.20;;
4430;SDS011;2228;48.140;11.488;2024-01-30T07:27:13;11.60;;;5.90;;
4430;SDS011;2228;48.140;11.488;2024-01-30T07:29:44;12.38;;;5.72;;
4430;SDS011;2228;48.140;11.488;2024-01-30T07:32:11;12.30;;;5.70;;
4430;SDS011;2228;48.140;11.488;2024-01-30T07:34:38;11.52;;;6.05;;
4430;SDS011;2228;48.140;11.488;2024-01-30T07:37:05;16.50;;;6.50;;
4430;SDS011;2228;48.140;11.488;2024-01-30T07:39:36;12.73;;;6.32;;
4430;SDS011;2228;48.140;11.488;2024-01-30T07:42:03;13.80;;;6.80;;
4430;SDS011;2228;48.140;11.488;2024-01-30T07:44:31;13.50;;;5.33;;
4430;SDS011;2228;48.140;11.488;2024-01-30T07:47:00;10.60;;;6.15;;
4430;SDS011;2228;48.140;11.488;2024-01-30T07:49:28;10.75;;;5.65;;
4430;SDS011;2228;48.140;11.488;2024-01-30T07:51:55;11.35;;;6.00;;
4430;SDS011;2228;48.140;11.488;2024-01-30T07:54:23;10.50;;;5.45;;
4430;SDS011;2228;48.140;11.488;2024-01-30T07:56:50;13.80;;;5.35;;
4430;SDS011;2228;48.140;11.488;2024-01-30T07:59:17;10.90;;;5.03;;
4430;SDS011;2228;48.140;11.488;2024-01-30T08:01:47;13.95;;;5.43;;
4430;SDS011;2228;48.140;11.488;2024-01-30T08:04:16;11.60;;;5.10;;
4430;SDS011;2228;48.140;11.488;2024-01-30T08:06:43;7.15;;;4.10;;
4430;SDS011;2228;48.140;11.488;2024-01-30T08:09:10;10.88;;;5.20;;
4430;SDS011;2228;48.140;11.488;2024-01-30T08:11:37;12.05;;;4.40;;
4430;SDS011;2228;48.140;11.488;2024-01-30T08:14:07;8.38;;;4.90;;
4430;SDS011;2228;48.140;11.488;2024-01-30T08:16:34;9.95;;;5.25;;
4430;SDS011;2228;48.140;11.488;2024-01-30T08:19:02;15.40;;;6.28;;
4430;SDS011;2228;48.140;11.488;2024-01-30T08:21:31;13.85;;;5.18;;
4430;SDS011;2228;48.140;11.488;2024-01-30T08:24:02;23.13;;;6.45;;
4430;SDS011;2228;48.140;11.488;2024-01-30T08:26:29;16.25;;;4.45;;
4430;SDS011;2228;48.140;11.488;2024-01-30T08:28:57;13.45;;;5.45;;
4430;SDS011;2228;48.140;11.488;2024-01-30T08:31:24;13.30;;;4.50;;
4430;SDS011;2228;48.140;11.488;2024-01-30T08:33:51;16.60;;;4.80;;
4430;SDS011;2228;48.140;11.488;2024-01-30T08:36:18;18.15;;;5.00;;
4430;SDS011;2228;48.140;11.488;2024-01-30T08:38:47;9.30;;;3.70;;
4430;SDS011;2228;48.140;11.488;2024-01-30T08:41:14;15.75;;;4.82;;
4430;SDS011;2228;48.140;11.488;2024-01-30T08:43:42;6.40;;;3.38;;
4430;SDS011;2228;48.140;11.488;2024-01-30T08:46:10;11.35;;;3.90;;
4430;SDS011;2228;48.140;11.488;2024-01-30T08:48:37;12.60;;;3.58;;
4430;SDS011;2228;48.140;11.488;2024-01-30T08:51:04;19.23;;;4.50;;
4430;SDS011;2228;48.140;11.488;2024-01-30T08:53:33;8.20;;;2.93;;
4430;SDS011;2228;48.140;11.488;2024-01-30T08:56:02;17.00;;;3.28;;
4430;SDS011;2228;48.140;11.488;2024-01-30T08:58:30;13.15;;;3.45;;
4430;SDS011;2228;48.140;11.488;2024-01-30T09:00:58;8.50;;;3.97;;
4430;SDS011;2228;48.140;11.488;2024-01-30T09:03:26;13.80;;;3.83;;
4430;SDS011;2228;48.140;11.488;2024-01-30T09:05:53;15.77;;;6.22;;
4430;SDS011;2228;48.140;11.488;2024-01-30T09:08:21;10.88;;;3.45;;
4430;SDS011;2228;48.140;11.488;2024-01-30T09:10:48;11.93;;;3.40;;
4430;SDS011;2228;48.140;11.488;2024-01-30T09:13:17;7.88;;;3.00;;
4430;SDS011;2228;48.140;11.488;2024-01-30T09:15:44;13.30;;;3.60;;
4430;SDS011;2228;48.140;11.488;2024-01-30T09:18:11;11.40;;;3.70;;
4430;SDS011;2228;48.140;11.488;2024-01-30T09:20:39;10.60;;;3.47;;
4430;SDS011;2228;48.140;11.488;2024-01-30T09:23:06;16.53;;;3.00;;
4430;SDS011;2228;48.140;11.488;2024-01-30T09:25:33;10.10;;;3.70;;
4430;SDS011;2228;48.140;11.488;2024-01-30T09:28:00;9.07;;;2.70;;
4430;SDS011;2228;48.140;11.488;2024-01-30T09:30:29;6.60;;;3.42;;
4430;SDS011;2228;48.140;11.488;2024-01-30T09:32:56;8.35;;;3.08;;
4430;SDS011;2228;48.140;11.488;2024-01-30T09:35:23;11.02;;;3.00;;
4430;SDS011;2228;48.140;11.488;2024-01-30T09:37:50;10.63;;;3.15;;
4430;SDS011;2228;48.140;11.488;2024-01-30T09:40:18;9.40;;;3.15;;
4430;SDS011;2228;48.140;11.488;2024-01-30T09:42:46;7.60;;;2.87;;
4430;SDS011;2228;48.140;11.488;2024-01-30T09:45:15;9.02;;;2.80;;
4430;SDS011;2228;48.140;11.488;2024-01-30T09:47:46;6.13;;;2.60;;
4430;SDS011;2228;48.140;11.488;2024-01-30T09:50:14;7.20;;;3.45;;
4430;SDS011;2228;48.140;11.488;2024-01-30T09:52:41;4.10;;;2.80;;
4430;SDS011;2228;48.140;11.488;2024-01-30T09:55:09;6.32;;;2.35;;
4430;SDS011;2228;48.140;11.488;2024-01-30T09:57:37;5.88;;;2.72;;
4430;SDS011;2228;48.140;11.488;2024-01-30T10:00:04;5.65;;;2.20;;
4430;SDS011;2228;48.140;11.488;2024-01-30T10:02:34;6.60;;;2.10;;
4430;SDS011;2228;48.140;11.488;2024-01-30T10:05:03;4.65;;;2.50;;
4430;SDS011;2228;48.140;11.488;2024-01-30T10:07:30;4.28;;;2.30;;
4430;SDS011;2228;48.140;11.488;2024-01-30T10:09:58;4.78;;;2.20;;
4430;SDS011;2228;48.140;11.488;2024-01-30T10:12:27;4.50;;;2.30;;
4430;SDS011;2228;48.140;11.488;2024-01-30T10:14:55;2.97;;;2.00;;
4430;SDS011;2228;48.140;11.488;2024-01-30T10:17:24;5.23;;;2.70;;
4430;SDS011;2228;48.140;11.488;2024-01-30T10:19:52;6.13;;;2.60;;
4430;SDS011;2228;48.140;11.488;2024-01-30T10:22:20;8.18;;;2.60;;
4430;SDS011;2228;48.140;11.488;2024-01-30T10:24:48;6.18;;;2.20;;
4430;SDS011;2228;48.140;11.488;2024-01-30T10:27:16;5.07;;;2.10;;
4430;SDS011;2228;48.140;11.488;2024-01-30T10:29:43;5.88;;;2.90;;
4430;SDS011;2228;48.140;11.488;2024-01-30T10:32:10;7.38;;;2.38;;
4430;SDS011;2228;48.140;11.488;2024-01-30T10:34:38;7.25;;;2.40;;
4430;SDS011;2228;48.140;11.488;2024-01-30T10:37:07;3.97;;;1.90;;
4430;SDS011;2228;48.140;11.488;2024-01-30T10:39:39;4.63;;;1.90;;
4430;SDS011;2228;48.140;11.488;2024-01-30T10:42:07;5.55;;;1.92;;
4430;SDS011;2228;48.140;11.488;2024-01-30T10:44:40;5.18;;;1.70;;
4430;SDS011;2228;48.140;11.488;2024-01-30T10:47:11;4.30;;;1.80;;
4430;SDS011;2228;48.140;11.488;2024-01-30T10:49:41;6.45;;;2.00;;
4430;SDS011;2228;48.140;11.488;2024-01-30T10:52:09;5.50;;;2.10;;
4430;SDS011;2228;48.140;11.488;2024-01-30T10:54:36;10.38;;;2.90;;
4430;SDS011;2228;48.140;11.488;2024-01-30T10:57:06;5.32;;;2.00;;
4430;SDS011;2228;48.140;11.488;2024-01-30T10:59:35;1.87;;;1.40;;
4430;SDS011;2228;48.140;11.488;2024-01-30T11:02:02;5.38;;;2.13;;
4430;SDS011;2228;48.140;11.488;2024-01-30T11:04:35;4.93;;;2.17;;
4430;SDS011;2228;48.140;11.488;2024-01-30T11:07:02;5.10;;;1.60;;
4430;SDS011;2228;48.140;11.488;2024-01-30T11:09:31;2.40;;;1.40;;
4430;SDS011;2228;48.140;11.488;2024-01-30T11:12:03;3.75;;;1.42;;
4430;SDS011;2228;48.140;11.488;2024-01-30T11:14:32;3.63;;;1.67;;
4430;SDS011;2228;48.140;11.488;2024-01-30T11:16:59;3.40;;;1.87;;
4430;SDS011;2228;48.140;11.488;2024-01-30T11:19:30;4.20;;;1.77;;
4430;SDS011;2228;48.140;11.488;2024-01-30T11:21:57;3.03;;;1.80;;
4430;SDS011;2228;48.140;11.488;2024-01-30T11:24:27;3.63;;;1.60;;
4430;SDS011;2228;48.140;11.488;2024-01-30T11:26:55;5.53;;;1.90;;
4430;SDS011;2228;48.140;11.488;2024-01-30T11:29:24;6.15;;;1.67;;
4430;SDS011;2228;48.140;11.488;2024-01-30T11:31:53;3.03;;;1.70;;
4430;SDS011;2228;48.140;11.488;2024-01-30T11:34:20;3.10;;;1.77;;
4430;SDS011;2228;48.140;11.488;2024-01-30T11:36:48;6.00;;;1.50;;
4430;SDS011;2228;48.140;11.488;2024-01-30T11:39:20;5.70;;;1.90;;
4430;SDS011;2228;48.140;11.488;2024-01-30T11:41:49;5.17;;;1.97;;
4430;SDS011;2228;48.140;11.488;2024-01-30T11:44:18;5.30;;;2.20;;
4430;SDS011;2228;48.140;11.488;2024-01-30T11:46:46;6.93;;;2.33;;
4430;SDS011;2228;48.140;11.488;2024-01-30T11:49:15;4.90;;;1.90;;
4430;SDS011;2228;48.140;11.488;2024-01-30T11:51:43;4.03;;;1.88;;
4430;SDS011;2228;48.140;11.488;2024-01-30T11:54:14;4.22;;;1.70;;
4430;SDS011;2228;48.140;11.488;2024-01-30T11:56:42;2.70;;;1.60;;
4430;SDS011;2228;48.140;11.488;2024-01-30T11:59:09;3.38;;;1.80;;
4430;SDS011;2228;48.140;11.488;2024-01-30T12:01:37;3.33;;;1.60;;
4430;SDS011;2228;48.140;11.488;2024-01-30T12:04:05;4.20;;;1.60;;
4430;SDS011;2228;48.140;11.488;2024-01-30T12:06:36;1.97;;;1.20;;
4430;SDS011;2228;48.140;11.488;2024-01-30T12:09:04;4.03;;;1.63;;
4430;SDS011;2228;48.140;11.488;2024-01-30T12:11:42;2.10;;;1.40;;
4430;SDS011;2228;48.140;11.488;2024-01-30T12:14:11;4.00;;;1.40;;
4430;SDS011;2228;48.140;11.488;2024-01-30T12:16:38;3.90;;;1.80;;
4430;SDS011;2228;48.140;11.488;2024-01-30T12:19:06;2.30;;;1.57;;
4430;SDS011;2228;48.140;11.488;2024-01-30T12:21:34;1.92;;;1.40;;
4430;SDS011;2228;48.140;11.488;2024-01-30T12:24:03;4.38;;;1.60;;
4430;SDS011;2228;48.140;11.488;2024-01-30T12:26:32;5.28;;;2.30;;
4430;SDS011;2228;48.140;11.488;2024-01-30T12:28:59;6.07;;;1.80;;
4430;SDS011;2228;48.140;11.488;2024-01-30T12:31:27;4.60;;;1.60;;
4430;SDS011;2228;48.140;11.488;2024-01-30T12:33:55;5.30;;;1.90;;
4430;SDS011;2228;48.140;11.488;2024-01-30T12:36:22;5.97;;;1.70;;
4430;SDS011;2228;48.140;11.488;2024-01-30T12:38:49;5.93;;;1.70;;
4430;SDS011;2228;48.140;11.488;2024-01-30T12:41:19;3.45;;;1.40;;
4430;SDS011;2228;48.140;11.488;2024-01-30T12:43:46;4.80;;;1.38;;
4430;SDS011;2228;48.140;11.488;2024-01-30T12:46:16;2.30;;;1.20;;
4430;SDS011;2228;48.140;11.488;2024-01-30T12:48:43;6.15;;;1.63;;
4430;SDS011;2228;48.140;11.488;2024-01-30T12:51:11;5.53;;;1.60;;
4430;SDS011;2228;48.140;11.488;2024-01-30T12:53:42;4.47;;;1.40;;
4430;SDS011;2228;48.140;11.488;2024-01-30T12:56:11;3.00;;;1.40;;
4430;SDS011;2228;48.140;11.488;2024-01-30T12:58:41;3.47;;;1.50;;
4430;SDS011;2228;48.140;11.488;2024-01-30T13:01:09;2.40;;;1.30;;
4430;SDS011;2228;48.140;11.488;2024-01-30T13:03:36;5.35;;;1.90;;
4430;SDS011;2228;48.140;11.488;2024-01-30T13:06:03;6.32;;;1.60;;
4430;SDS011;2228;48.140;11.488;2024-01-30T13:08:31;5.03;;;1.60;;
4430;SDS011;2228;48.140;11.488;2024-01-30T13:10:58;4.85;;;1.67;;
4430;SDS011;2228;48.140;11.488;2024-01-30T13:13:27;2.80;;;1.40;;
4430;SDS011;2228;48.140;11.488;2024-01-30T13:15:56;3.10;;;1.10;;
4430;SDS011;2228;48.140;11.488;2024-01-30T13:18:23;4.50;;;1.40;;
4430;SDS011;2228;48.140;11.488;2024-01-30T13:20:50;5.93;;;1.67;;
4430;SDS011;2228;48.140;11.488;2024-01-30T13:23:18;9.02;;;1.70;;
4430;SDS011;2228;48.140;11.488;2024-01-30T13:25:45;4.50;;;1.40;;
4430;SDS011;2228;48.140;11.488;2024-01-30T13:28:12;7.85;;;1.20;;
4430;SDS011;2228;48.140;11.488;2024-01-30T13:30:39;2.47;;;1.40;;
4430;SDS011;2228;48.140;11.488;2024-01-30T13:33:08;4.83;;;1.30;;
4430;SDS011;2228;48.140;11.488;2024-01-30T13:35:35;4.38;;;1.48;;
4430;SDS011;2228;48.140;11.488;2024-01-30T13:38:03;2.90;;;1.20;;
4430;SDS011;2228;48.140;11.488;2024-01-30T13:40:30;4.47;;;2.00;;
4430;SDS011;2228;48.140;11.488;2024-01-30T13:42:57;2.20;;;1.10;;
4430;SDS011;2228;48.140;11.488;2024-01-30T13:45:26;1.80;;;1.20;;
4430;SDS011;2228;48.140;11.488;2024-01-30T13:47:53;5.55;;;2.65;;
4430;SDS011;2228;48.140;11.488;2024-01-30T13:50:22;3.20;;;1.35;;
4430;SDS011;2228;48.140;11.488;2024-01-30T13:52:49;2.53;;;1.00;;
4430;SDS011;2228;48.140;11.488;2024-01-30T13:55:17;1.90;;;1.30;;
4430;SDS011;2228;48.140;11.488;2024-01-30T13:57:44;2.03;;;1.20;;
4430;SDS011;2228;48.140;11.488;2024-01-30T14:00:11;3.10;;;1.30;;
4430;SDS011;2228;48.140;11.488;2024-01-30T14:02:41;5.53;;;1.50;;
4430;SDS011;2228;48.140;11.488;2024-01-30T14:05:08;4.03;;;1.45;;
4430;SDS011;2228;48.140;11.488;2024-01-30T14:07:37;3.97;;;1.40;;
4430;SDS011;2228;48.140;11.488;2024-01-30T14:10:05;5.28;;;2.22;;
4430;SDS011;2228;48.140;11.488;2024-01-30T14:12:32;5.80;;;1.80;;
4430;SDS011;2228;48.140;11.488;2024-01-30T14:15:00;6.68;;;2.13;;
4430;SDS011;2228;48.140;11.488;2024-01-30T14:17:27;7.35;;;2.03;;
4430;SDS011;2228;48.140;11.488;2024-01-30T14:19:54;8.50;;;2.07;;
4430;SDS011;2228;48.140;11.488;2024-01-30T14:22:21;9.27;;;2.60;;
4430;SDS011;2228;48.140;11.488;2024-01-30T14:24:50;6.07;;;2.20;;
4430;SDS011;2228;48.140;11.488;2024-01-30T14:27:17;7.68;;;2.30;;
4430;SDS011;2228;48.140;11.488;2024-01-30T14:29:44;7.22;;;1.90;;
4430;SDS011;2228;48.140;11.488;2024-01-30T14:32:12;6.72;;;2.17;;
4430;SDS011;2228;48.140;11.488;2024-01-30T14:34:39;5.82;;;2.38;;
4430;SDS011;2228;48.140;11.488;2024-01-30T14:37:06;15.07;;;2.80;;
4430;SDS011;2228;48.140;11.488;2024-01-30T14:39:34;8.10;;;2.25;;
4430;SDS011;2228;48.140;11.488;2024-01-30T14:42:03;6.65;;;1.95;;
4430;SDS011;2228;48.140;11.488;2024-01-30T14:44:31;8.10;;;1.90;;
4430;SDS011;2228;48.140;11.488;2024-01-30T14:46:58;6.30;;;2.30;;
4430;SDS011;2228;48.140;11.488;2024-01-30T14:49:28;7.18;;;2.10;;
4430;SDS011;2228;48.140;11.488;2024-01-30T14:51:55;6.00;;;1.65;;
4430;SDS011;2228;48.140;11.488;2024-01-30T14:54:23;6.05;;;1.80;;
4430;SDS011;2228;48.140;11.488;2024-01-30T14:56:51;6.03;;;1.80;;